sensor_id;sensor_type;location;lat;lon;timestamp;P1;durP1;ratioP1;P2;durP2;ratioP2
37997;SDS011;24079;51.824;4.682;2023-02-12T00:02:16;16.80;;;10.07;;
37997;SDS011;24079;51.824;4.682;2023-02-12T00:04:43;18.25;;;10.55;;
37997;SDS011;24079;51.824;4.682;2023-02-12T00:07:09;17.00;;;11.00;;
37997;SDS011;24079;51.824;4.682;2023-02-12T00:09:35;15.07;;;10.55;;
37997;SDS011;24079;51.824;4.682;2023-02-12T00:12:01;19.92;;;11.00;;
37997;SDS011;24079;51.824;4.682;2023-02-12T00:14:27;15.45;;;10.32;;
37997;SDS011;24079;51.824;4.682;2023-02-12T00:16:53;15.20;;;10.13;;
37997;SDS011;24079;51.824;4.682;2023-02-12T00:19:18;13.60;;;9.98;;
37997;SDS011;24079;51.824;4.682;2023-02-12T00:21:44;17.13;;;10.52;;
37997;SDS011;24079;51.824;4.682;2023-02-12T00:24:10;15.05;;;10.32;;
37997;SDS011;24079;51.824;4.682;2023-02-12T00:26:35;15.85;;;10.45;;
37997;SDS011;24079;51.824;4.682;2023-02-12T00:29:01;14.82;;;9.60;;
37997;SDS011;24079;51.824;4.682;2023-02-12T00:31:27;16.48;;;9.30;;
37997;SDS011;24079;51.824;4.682;2023-02-12T00:33:55;18.77;;;9.88;;
37997;SDS011;24079;51.824;4.682;2023-02-12T00:36:22;16.90;;;9.75;;
37997;SDS011;24079;51.824;4.682;2023-02-12T00:38:51;15.27;;;9.30;;
37997;SDS011;24079;51.824;4.682;2023-02-12T00:41:18;12.98;;;8.25;;
37997;SDS011;24079;51.824;4.682;2023-02-12T00:43:43;14.35;;;9.02;;
37997;SDS011;24079;51.824;4.682;2023-02-12T00:46:10;15.50;;;9.75;;
37997;SDS011;24079;51.824;4.682;2023-02-12T00:48:36;14.07;;;9.05;;
37997;SDS011;24079;51.824;4.682;2023-02-12T00:51:02;13.98;;;8.85;;
37997;SDS011;24079;51.824;4.682;2023-02-12T00:53:28;16.00;;;10.00;;
37997;SDS011;24079;51.824;4.682;2023-02-12T00:55:54;17.67;;;9.40;;
37997;SDS011;24079;51.824;4.682;2023-02-12T00:58:20;13.98;;;8.93;;
37997;SDS011;24079;51.824;4.682;2023-02-12T01:00:46;20.75;;;9.65;;
37997;SDS011;24079;51.824;4.682;2023-02-12T01:03:11;14.00;;;9.00;;
37997;SDS011;24079;51.824;4.682;2023-02-12T01:05:37;14.77;;;9.18;;
37997;SDS011;24079;51.824;4.682;2023-02-12T01:08:03;15.55;;;8.93;;
37997;SDS011;24079;51.824;4.682;2023-02-12T01:10:29;15.63;;;9.63;;
37997;SDS011;24079;51.824;4.682;2023-02-12T01:12:55;16.42;;;9.00;;
37997;SDS011;24079;51.824;4.682;2023-02-12T01:15:21;11.50;;;8.98;;
37997;SDS011;24079;51.824;4.682;2023-02-12T01:17:49;14.27;;;8.57;;
37997;SDS011;24079;51.824;4.682;2023-02-12T01:20:16;13.68;;;8.63;;
37997;SDS011;24079;51.824;4.682;2023-02-12T01:22:42;14.77;;;8.60;;
37997;SDS011;24079;51.824;4.682;2023-02-12T01:25:08;16.20;;;9.20;;
37997;SDS011;24079;51.824;4.682;2023-02-12T01:27:34;14.57;;;9.50;;
37997;SDS011;24079;51.824;4.682;2023-02-12T01:30:00;20.02;;;9.73;;
37997;SDS011;24079;51.824;4.682;2023-02-12T01:32:26;13.90;;;8.43;;
37997;SDS011;24079;51.824;4.682;2023-02-12T01:34:52;14.65;;;8.93;;
37997;SDS011;24079;51.824;4.682;2023-02-12T01:37:17;12.40;;;8.68;;
37997;SDS011;24079;51.824;4.682;2023-02-12T01:39:43;14.82;;;8.70;;
37997;SDS011;24079;51.824;4.682;2023-02-12T01:42:10;13.73;;;8.90;;
37997;SDS011;24079;51.824;4.682;2023-02-12T01:44:38;14.30;;;8.25;;
37997;SDS011;24079;51.824;4.682;2023-02-12T01:47:30;14.35;;;8.98;;
37997;SDS011;24079;51.824;4.682;2023-02-12T01:49:56;14.48;;;9.35;;
37997;SDS011;24079;51.824;4.682;2023-02-12T01:54:49;14.52;;;8.93;;
37997;SDS011;24079;51.824;4.682;2023-02-12T01:57:16;13.38;;;9.18;;
37997;SDS011;24079;51.824;4.682;2023-02-12T01:59:43;23.02;;;9.63;;
37997;SDS011;24079;51.824;4.682;2023-02-12T02:02:10;14.43;;;9.25;;
37997;SDS011;24079;51.824;4.682;2023-02-12T02:04:41;17.15;;;9.85;;
37997;SDS011;24079;51.824;4.682;2023-02-12T02:07:10;13.00;;;9.13;;
37997;SDS011;24079;51.824;4.682;2023-02-12T02:09:37;14.68;;;9.15;;
37997;SDS011;24079;51.824;4.682;2023-02-12T02:12:04;17.92;;;9.30;;
37997;SDS011;24079;51.824;4.682;2023-02-12T02:14:49;14.60;;;9.65;;
37997;SDS011;24079;51.824;4.682;2023-02-12T02:34:24;16.88;;;9.13;;
37997;SDS011;24079;51.824;4.682;2023-02-12T02:36:59;14.02;;;8.90;;
37997;SDS011;24079;51.824;4.682;2023-02-12T02:39:42;12.15;;;8.55;;
37997;SDS011;24079;51.824;4.682;2023-02-12T02:44:59;13.68;;;8.70;;
37997;SDS011;24079;51.824;4.682;2023-02-12T02:47:31;13.27;;;9.10;;
37997;SDS011;24079;51.824;4.682;2023-02-12T02:50:17;19.77;;;9.68;;
37997;SDS011;24079;51.824;4.682;2023-02-12T02:52:48;16.27;;;8.43;;
37997;SDS011;24079;51.824;4.682;2023-02-12T02:55:21;9.85;;;7.63;;
37997;SDS011;24079;51.824;4.682;2023-02-12T02:57:52;11.05;;;7.68;;
37997;SDS011;24079;51.824;4.682;2023-02-12T03:00:44;12.95;;;9.27;;
37997;SDS011;24079;51.824;4.682;2023-02-12T03:05:58;14.98;;;9.52;;
37997;SDS011;24079;51.824;4.682;2023-02-12T03:08:37;15.95;;;9.50;;
37997;SDS011;24079;51.824;4.682;2023-02-12T03:11:09;12.25;;;8.68;;
37997;SDS011;24079;51.824;4.682;2023-02-12T03:13:48;14.70;;;9.43;;
37997;SDS011;24079;51.824;4.682;2023-02-12T03:16:26;14.95;;;8.95;;
37997;SDS011;24079;51.824;4.682;2023-02-12T03:19:06;13.75;;;9.18;;
37997;SDS011;24079;51.824;4.682;2023-02-12T03:21:40;12.85;;;8.30;;
37997;SDS011;24079;51.824;4.682;2023-02-12T03:24:23;14.25;;;9.00;;
37997;SDS011;24079;51.824;4.682;2023-02-12T03:29:33;16.07;;;9.17;;
37997;SDS011;24079;51.824;4.682;2023-02-12T03:37:35;14.27;;;8.32;;
37997;SDS011;24079;51.824;4.682;2023-02-12T03:45:48;10.32;;;8.05;;
37997;SDS011;24079;51.824;4.682;2023-02-12T03:48:47;12.43;;;7.75;;
37997;SDS011;24079;51.824;4.682;2023-02-12T03:51:34;11.82;;;7.70;;
37997;SDS011;24079;51.824;4.682;2023-02-12T03:59:26;11.95;;;7.15;;
37997;SDS011;24079;51.824;4.682;2023-02-12T04:01:52;12.20;;;7.60;;
37997;SDS011;24079;51.824;4.682;2023-02-12T04:04:20;10.85;;;7.60;;
37997;SDS011;24079;51.824;4.682;2023-02-12T04:06:47;15.63;;;7.50;;
37997;SDS011;24079;51.824;4.682;2023-02-12T04:09:14;11.18;;;7.32;;
37997;SDS011;24079;51.824;4.682;2023-02-12T04:14:17;12.15;;;7.90;;
37997;SDS011;24079;51.824;4.682;2023-02-12T04:19:48;15.50;;;7.75;;
37997;SDS011;24079;51.824;4.682;2023-02-12T04:25:16;14.60;;;7.93;;
37997;SDS011;24079;51.824;4.682;2023-02-12T04:30:22;12.82;;;7.75;;
37997;SDS011;24079;51.824;4.682;2023-02-12T04:32:58;11.32;;;7.78;;
37997;SDS011;24079;51.824;4.682;2023-02-12T04:35:30;11.43;;;7.38;;
37997;SDS011;24079;51.824;4.682;2023-02-12T04:40:37;9.43;;;7.28;;
37997;SDS011;24079;51.824;4.682;2023-02-12T04:43:04;10.40;;;6.80;;
37997;SDS011;24079;51.824;4.682;2023-02-12T04:45:31;11.93;;;7.75;;
37997;SDS011;24079;51.824;4.682;2023-02-12T04:47:58;9.73;;;7.22;;
37997;SDS011;24079;51.824;4.682;2023-02-12T04:50:25;16.83;;;7.60;;
37997;SDS011;24079;51.824;4.682;2023-02-12T04:52:53;9.07;;;6.53;;
37997;SDS011;24079;51.824;4.682;2023-02-12T04:55:18;9.13;;;6.78;;
37997;SDS011;24079;51.824;4.682;2023-02-12T04:57:45;10.38;;;7.13;;
37997;SDS011;24079;51.824;4.682;2023-02-12T05:00:12;12.40;;;7.85;;
37997;SDS011;24079;51.824;4.682;2023-02-12T05:02:39;10.20;;;7.43;;
37997;SDS011;24079;51.824;4.682;2023-02-12T05:05:05;11.57;;;7.50;;
37997;SDS011;24079;51.824;4.682;2023-02-12T05:07:31;10.90;;;7.13;;
37997;SDS011;24079;51.824;4.682;2023-02-12T05:09:57;11.57;;;7.22;;
37997;SDS011;24079;51.824;4.682;2023-02-12T05:12:23;11.80;;;7.57;;
37997;SDS011;24079;51.824;4.682;2023-02-12T05:14:49;9.38;;;7.32;;
37997;SDS011;24079;51.824;4.682;2023-02-12T05:17:15;11.15;;;8.07;;
37997;SDS011;24079;51.824;4.682;2023-02-12T05:19:41;12.10;;;7.95;;
37997;SDS011;24079;51.824;4.682;2023-02-12T05:22:07;11.57;;;7.88;;
37997;SDS011;24079;51.824;4.682;2023-02-12T05:24:33;11.38;;;7.22;;
37997;SDS011;24079;51.824;4.682;2023-02-12T05:26:59;11.02;;;6.53;;
37997;SDS011;24079;51.824;4.682;2023-02-12T05:29:24;11.48;;;7.60;;
37997;SDS011;24079;51.824;4.682;2023-02-12T05:31:50;15.18;;;8.68;;
37997;SDS011;24079;51.824;4.682;2023-02-12T05:34:16;11.20;;;7.50;;
37997;SDS011;24079;51.824;4.682;2023-02-12T05:36:41;9.57;;;7.05;;
37997;SDS011;24079;51.824;4.682;2023-02-12T05:39:07;13.73;;;7.45;;
37997;SDS011;24079;51.824;4.682;2023-02-12T05:41:33;11.07;;;7.20;;
37997;SDS011;24079;51.824;4.682;2023-02-12T05:44:03;13.85;;;7.80;;
37997;SDS011;24079;51.824;4.682;2023-02-12T05:46:30;11.82;;;7.78;;
37997;SDS011;24079;51.824;4.682;2023-02-12T05:48:56;11.20;;;7.97;;
37997;SDS011;24079;51.824;4.682;2023-02-12T05:51:23;13.38;;;8.25;;
37997;SDS011;24079;51.824;4.682;2023-02-12T05:53:51;9.15;;;7.32;;
37997;SDS011;24079;51.824;4.682;2023-02-12T05:56:22;10.48;;;7.90;;
37997;SDS011;24079;51.824;4.682;2023-02-12T05:59:11;12.82;;;8.25;;
37997;SDS011;24079;51.824;4.682;2023-02-12T06:01:43;14.02;;;7.68;;
37997;SDS011;24079;51.824;4.682;2023-02-12T06:04:18;12.30;;;7.00;;
37997;SDS011;24079;51.824;4.682;2023-02-12T06:06:51;9.75;;;7.90;;
37997;SDS011;24079;51.824;4.682;2023-02-12T06:09:17;12.30;;;8.77;;
37997;SDS011;24079;51.824;4.682;2023-02-12T06:11:44;12.20;;;8.48;;
37997;SDS011;24079;51.824;4.682;2023-02-12T06:14:12;11.13;;;8.75;;
37997;SDS011;24079;51.824;4.682;2023-02-12T06:16:40;10.95;;;8.00;;
37997;SDS011;24079;51.824;4.682;2023-02-12T06:19:08;11.70;;;8.30;;
37997;SDS011;24079;51.824;4.682;2023-02-12T06:21:34;15.40;;;8.88;;
37997;SDS011;24079;51.824;4.682;2023-02-12T06:24:00;14.10;;;9.25;;
37997;SDS011;24079;51.824;4.682;2023-02-12T06:26:26;15.48;;;9.35;;
37997;SDS011;24079;51.824;4.682;2023-02-12T06:28:52;12.90;;;9.18;;
37997;SDS011;24079;51.824;4.682;2023-02-12T06:31:20;14.07;;;8.90;;
37997;SDS011;24079;51.824;4.682;2023-02-12T06:33:46;13.23;;;9.07;;
37997;SDS011;24079;51.824;4.682;2023-02-12T06:36:13;12.88;;;9.68;;
37997;SDS011;24079;51.824;4.682;2023-02-12T06:38:39;15.43;;;10.02;;
37997;SDS011;24079;51.824;4.682;2023-02-12T06:41:05;12.27;;;9.73;;
37997;SDS011;24079;51.824;4.682;2023-02-12T06:43:30;14.85;;;9.90;;
37997;SDS011;24079;51.824;4.682;2023-02-12T06:45:59;13.52;;;9.23;;
37997;SDS011;24079;51.824;4.682;2023-02-12T06:48:26;19.02;;;9.57;;
37997;SDS011;24079;51.824;4.682;2023-02-12T06:50:52;13.30;;;9.05;;
37997;SDS011;24079;51.824;4.682;2023-02-12T06:53:17;15.02;;;8.90;;
37997;SDS011;24079;51.824;4.682;2023-02-12T06:55:43;13.25;;;9.32;;
37997;SDS011;24079;51.824;4.682;2023-02-12T06:58:09;9.90;;;8.38;;
37997;SDS011;24079;51.824;4.682;2023-02-12T07:00:34;14.82;;;9.70;;
37997;SDS011;24079;51.824;4.682;2023-02-12T07:03:00;14.60;;;9.10;;
37997;SDS011;24079;51.824;4.682;2023-02-12T07:05:25;13.45;;;9.35;;
37997;SDS011;24079;51.824;4.682;2023-02-12T07:07:51;13.35;;;9.05;;
37997;SDS011;24079;51.824;4.682;2023-02-12T07:10:17;13.23;;;9.02;;
37997;SDS011;24079;51.824;4.682;2023-02-12T07:12:43;12.90;;;8.50;;
37997;SDS011;24079;51.824;4.682;2023-02-12T07:15:09;14.00;;;8.98;;
37997;SDS011;24079;51.824;4.682;2023-02-12T07:17:35;13.00;;;8.98;;
37997;SDS011;24079;51.824;4.682;2023-02-12T07:20:01;11.40;;;8.55;;
37997;SDS011;24079;51.824;4.682;2023-02-12T07:22:27;14.90;;;7.57;;
37997;SDS011;24079;51.824;4.682;2023-02-12T07:24:52;10.88;;;9.00;;
37997;SDS011;24079;51.824;4.682;2023-02-12T07:27:18;14.35;;;9.02;;
37997;SDS011;24079;51.824;4.682;2023-02-12T07:29:43;12.00;;;8.13;;
37997;SDS011;24079;51.824;4.682;2023-02-12T07:32:09;12.57;;;8.68;;
37997;SDS011;24079;51.824;4.682;2023-02-12T07:34:35;12.48;;;8.57;;
37997;SDS011;24079;51.824;4.682;2023-02-12T07:37:00;11.60;;;8.32;;
37997;SDS011;24079;51.824;4.682;2023-02-12T07:39:26;14.15;;;8.63;;
37997;SDS011;24079;51.824;4.682;2023-02-12T07:41:51;15.77;;;8.63;;
37997;SDS011;24079;51.824;4.682;2023-02-12T07:44:17;14.73;;;9.18;;
37997;SDS011;24079;51.824;4.682;2023-02-12T07:46:45;13.98;;;8.80;;
37997;SDS011;24079;51.824;4.682;2023-02-12T07:49:16;13.32;;;8.40;;
37997;SDS011;24079;51.824;4.682;2023-02-12T07:51:43;11.38;;;8.05;;
37997;SDS011;24079;51.824;4.682;2023-02-12T07:54:10;10.70;;;7.93;;
37997;SDS011;24079;51.824;4.682;2023-02-12T07:56:37;16.70;;;8.38;;
37997;SDS011;24079;51.824;4.682;2023-02-12T07:59:05;11.60;;;7.95;;
37997;SDS011;24079;51.824;4.682;2023-02-12T08:01:34;11.52;;;8.20;;
37997;SDS011;24079;51.824;4.682;2023-02-12T08:04:06;11.38;;;7.68;;
37997;SDS011;24079;51.824;4.682;2023-02-12T08:06:41;14.52;;;8.85;;
37997;SDS011;24079;51.824;4.682;2023-02-12T08:09:10;14.93;;;8.95;;
37997;SDS011;24079;51.824;4.682;2023-02-12T08:11:38;13.13;;;9.38;;
37997;SDS011;24079;51.824;4.682;2023-02-12T08:14:05;11.52;;;8.32;;
37997;SDS011;24079;51.824;4.682;2023-02-12T08:16:34;14.15;;;9.57;;
37997;SDS011;24079;51.824;4.682;2023-02-12T08:19:02;12.07;;;8.95;;
37997;SDS011;24079;51.824;4.682;2023-02-12T08:21:28;17.25;;;9.52;;
37997;SDS011;24079;51.824;4.682;2023-02-12T08:23:54;16.45;;;10.65;;
37997;SDS011;24079;51.824;4.682;2023-02-12T08:28:49;13.20;;;9.13;;
37997;SDS011;24079;51.824;4.682;2023-02-12T08:31:27;12.25;;;8.52;;
37997;SDS011;24079;51.824;4.682;2023-02-12T08:33:54;15.25;;;10.32;;
37997;SDS011;24079;51.824;4.682;2023-02-12T08:36:33;13.23;;;9.43;;
37997;SDS011;24079;51.824;4.682;2023-02-12T08:39:04;12.77;;;9.60;;
37997;SDS011;24079;51.824;4.682;2023-02-12T08:41:31;14.00;;;9.45;;
37997;SDS011;24079;51.824;4.682;2023-02-12T08:43:57;17.15;;;10.65;;
37997;SDS011;24079;51.824;4.682;2023-02-12T08:46:26;16.08;;;11.40;;
37997;SDS011;24079;51.824;4.682;2023-02-12T08:48:57;21.77;;;13.02;;
37997;SDS011;24079;51.824;4.682;2023-02-12T08:51:26;25.77;;;15.90;;
37997;SDS011;24079;51.824;4.682;2023-02-12T08:56:23;17.40;;;10.30;;
37997;SDS011;24079;51.824;4.682;2023-02-12T08:58:49;17.83;;;10.90;;
37997;SDS011;24079;51.824;4.682;2023-02-12T09:01:16;16.33;;;9.98;;
37997;SDS011;24079;51.824;4.682;2023-02-12T09:03:45;15.13;;;10.63;;
37997;SDS011;24079;51.824;4.682;2023-02-12T09:06:11;17.58;;;11.15;;
37997;SDS011;24079;51.824;4.682;2023-02-12T09:08:38;19.65;;;11.77;;
37997;SDS011;24079;51.824;4.682;2023-02-12T09:11:06;19.88;;;11.50;;
37997;SDS011;24079;51.824;4.682;2023-02-12T09:13:33;30.50;;;18.10;;
37997;SDS011;24079;51.824;4.682;2023-02-12T09:16:00;34.58;;;17.98;;
37997;SDS011;24079;51.824;4.682;2023-02-12T09:18:27;58.08;;;26.65;;
37997;SDS011;24079;51.824;4.682;2023-02-12T09:20:53;29.42;;;16.10;;
37997;SDS011;24079;51.824;4.682;2023-02-12T09:23:19;16.92;;;12.25;;
37997;SDS011;24079;51.824;4.682;2023-02-12T09:25:45;19.05;;;10.90;;
37997;SDS011;24079;51.824;4.682;2023-02-12T09:28:11;17.20;;;11.75;;
37997;SDS011;24079;51.824;4.682;2023-02-12T09:30:38;19.15;;;10.90;;
37997;SDS011;24079;51.824;4.682;2023-02-12T09:33:05;15.90;;;10.52;;
37997;SDS011;24079;51.824;4.682;2023-02-12T09:35:34;15.98;;;10.18;;
37997;SDS011;24079;51.824;4.682;2023-02-12T09:38:01;17.35;;;11.15;;
37997;SDS011;24079;51.824;4.682;2023-02-12T09:43:47;16.85;;;11.43;;
37997;SDS011;24079;51.824;4.682;2023-02-12T09:51:50;24.63;;;13.65;;
37997;SDS011;24079;51.824;4.682;2023-02-12T09:54:22;22.40;;;13.20;;
37997;SDS011;24079;51.824;4.682;2023-02-12T09:56:58;15.70;;;11.18;;
37997;SDS011;24079;51.824;4.682;2023-02-12T09:59:37;16.85;;;11.88;;
37997;SDS011;24079;51.824;4.682;2023-02-12T10:02:13;14.27;;;10.80;;
37997;SDS011;24079;51.824;4.682;2023-02-12T10:04:41;19.70;;;12.05;;
37997;SDS011;24079;51.824;4.682;2023-02-12T10:15:18;18.63;;;12.50;;
37997;SDS011;24079;51.824;4.682;2023-02-12T10:21:07;18.05;;;10.80;;
37997;SDS011;24079;51.824;4.682;2023-02-12T10:28:52;18.88;;;11.55;;
37997;SDS011;24079;51.824;4.682;2023-02-12T10:31:28;17.90;;;11.30;;
37997;SDS011;24079;51.824;4.682;2023-02-12T10:33:57;15.20;;;11.48;;
37997;SDS011;24079;51.824;4.682;2023-02-12T10:36:40;17.90;;;12.27;;
37997;SDS011;24079;51.824;4.682;2023-02-12T10:39:19;18.77;;;11.65;;
37997;SDS011;24079;51.824;4.682;2023-02-12T10:41:53;18.60;;;11.02;;
37997;SDS011;24079;51.824;4.682;2023-02-12T10:44:25;20.33;;;11.98;;
37997;SDS011;24079;51.824;4.682;2023-02-12T10:46:51;21.55;;;12.13;;
37997;SDS011;24079;51.824;4.682;2023-02-12T10:49:17;21.50;;;12.85;;
37997;SDS011;24079;51.824;4.682;2023-02-12T10:54:33;25.35;;;15.13;;
37997;SDS011;24079;51.824;4.682;2023-02-12T10:57:03;20.88;;;12.18;;
37997;SDS011;24079;51.824;4.682;2023-02-12T10:59:51;38.88;;;18.70;;
37997;SDS011;24079;51.824;4.682;2023-02-12T11:02:29;25.27;;;14.93;;
37997;SDS011;24079;51.824;4.682;2023-02-12T11:04:57;19.30;;;11.75;;
37997;SDS011;24079;51.824;4.682;2023-02-12T11:07:24;20.83;;;12.77;;
37997;SDS011;24079;51.824;4.682;2023-02-12T11:09:52;25.90;;;15.48;;
37997;SDS011;24079;51.824;4.682;2023-02-12T11:15:09;23.17;;;14.23;;
37997;SDS011;24079;51.824;4.682;2023-02-12T11:17:40;19.10;;;11.23;;
37997;SDS011;24079;51.824;4.682;2023-02-12T11:22:52;35.03;;;18.17;;
37997;SDS011;24079;51.824;4.682;2023-02-12T11:25:28;22.65;;;12.45;;
37997;SDS011;24079;51.824;4.682;2023-02-12T11:28:13;35.92;;;22.70;;
37997;SDS011;24079;51.824;4.682;2023-02-12T11:30:51;22.40;;;13.27;;
37997;SDS011;24079;51.824;4.682;2023-02-12T11:36:16;17.90;;;11.27;;
37997;SDS011;24079;51.824;4.682;2023-02-12T11:38:53;17.48;;;10.63;;
37997;SDS011;24079;51.824;4.682;2023-02-12T11:43:50;17.98;;;11.32;;
37997;SDS011;24079;51.824;4.682;2023-02-12T11:46:21;17.55;;;11.10;;
37997;SDS011;24079;51.824;4.682;2023-02-12T11:48:52;20.65;;;11.45;;
37997;SDS011;24079;51.824;4.682;2023-02-12T11:51:24;23.73;;;11.52;;
37997;SDS011;24079;51.824;4.682;2023-02-12T11:53:53;18.83;;;12.20;;
37997;SDS011;24079;51.824;4.682;2023-02-12T11:56:21;20.50;;;11.77;;
37997;SDS011;24079;51.824;4.682;2023-02-12T11:58:47;22.38;;;12.00;;
37997;SDS011;24079;51.824;4.682;2023-02-12T12:01:18;27.20;;;15.65;;
37997;SDS011;24079;51.824;4.682;2023-02-12T12:04:13;19.30;;;12.13;;
37997;SDS011;24079;51.824;4.682;2023-02-12T12:06:45;21.08;;;14.20;;
37997;SDS011;24079;51.824;4.682;2023-02-12T12:09:28;18.00;;;10.93;;
37997;SDS011;24079;51.824;4.682;2023-02-12T12:14:58;14.45;;;9.63;;
37997;SDS011;24079;51.824;4.682;2023-02-12T12:17:57;13.10;;;9.68;;
37997;SDS011;24079;51.824;4.682;2023-02-12T12:21:15;15.25;;;9.13;;
37997;SDS011;24079;51.824;4.682;2023-02-12T12:23:54;15.27;;;9.23;;
37997;SDS011;24079;51.824;4.682;2023-02-12T12:26:35;17.58;;;9.75;;
37997;SDS011;24079;51.824;4.682;2023-02-12T12:29:06;13.60;;;8.65;;
37997;SDS011;24079;51.824;4.682;2023-02-12T12:31:52;17.40;;;10.20;;
37997;SDS011;24079;51.824;4.682;2023-02-12T12:34:24;16.50;;;10.18;;
37997;SDS011;24079;51.824;4.682;2023-02-12T12:39:59;23.80;;;14.20;;
37997;SDS011;24079;51.824;4.682;2023-02-12T12:42:58;17.17;;;11.82;;
37997;SDS011;24079;51.824;4.682;2023-02-12T12:51:22;20.90;;;14.50;;
37997;SDS011;24079;51.824;4.682;2023-02-12T12:56:48;26.25;;;17.10;;
37997;SDS011;24079;51.824;4.682;2023-02-12T12:59:53;26.00;;;17.92;;
37997;SDS011;24079;51.824;4.682;2023-02-12T13:05:17;23.63;;;15.65;;
37997;SDS011;24079;51.824;4.682;2023-02-12T13:08:03;23.75;;;17.08;;
37997;SDS011;24079;51.824;4.682;2023-02-12T13:10:50;26.50;;;16.77;;
37997;SDS011;24079;51.824;4.682;2023-02-12T13:13:43;26.10;;;18.48;;
37997;SDS011;24079;51.824;4.682;2023-02-12T13:16:12;29.55;;;19.27;;
37997;SDS011;24079;51.824;4.682;2023-02-12T13:26:42;28.25;;;18.35;;
37997;SDS011;24079;51.824;4.682;2023-02-12T13:29:21;27.23;;;18.63;;
37997;SDS011;24079;51.824;4.682;2023-02-12T13:32:34;27.58;;;17.92;;
37997;SDS011;24079;51.824;4.682;2023-02-12T13:34:55;29.75;;;19.05;;
37997;SDS011;24079;51.824;4.682;2023-02-12T13:37:35;26.63;;;18.15;;
37997;SDS011;24079;51.824;4.682;2023-02-12T13:40:06;28.50;;;18.05;;
37997;SDS011;24079;51.824;4.682;2023-02-12T13:42:43;29.48;;;19.38;;
37997;SDS011;24079;51.824;4.682;2023-02-12T13:55:22;30.30;;;19.00;;
37997;SDS011;24079;51.824;4.682;2023-02-12T14:03:22;27.58;;;18.88;;
37997;SDS011;24079;51.824;4.682;2023-02-12T14:06:05;29.02;;;19.50;;
37997;SDS011;24079;51.824;4.682;2023-02-12T14:08:36;31.33;;;19.90;;
37997;SDS011;24079;51.824;4.682;2023-02-12T14:11:16;28.45;;;18.92;;
37997;SDS011;24079;51.824;4.682;2023-02-12T14:14:05;30.35;;;19.38;;
37997;SDS011;24079;51.824;4.682;2023-02-12T14:22:05;31.70;;;21.15;;
37997;SDS011;24079;51.824;4.682;2023-02-12T14:24:57;32.47;;;20.27;;
37997;SDS011;24079;51.824;4.682;2023-02-12T14:27:54;30.13;;;19.83;;
37997;SDS011;24079;51.824;4.682;2023-02-12T14:30:35;28.95;;;19.55;;
37997;SDS011;24079;51.824;4.682;2023-02-12T14:38:01;32.13;;;20.33;;
37997;SDS011;24079;51.824;4.682;2023-02-12T14:42:59;25.40;;;17.35;;
37997;SDS011;24079;51.824;4.682;2023-02-12T14:45:34;33.42;;;21.17;;
37997;SDS011;24079;51.824;4.682;2023-02-12T14:48:02;29.83;;;19.65;;
37997;SDS011;24079;51.824;4.682;2023-02-12T14:50:39;28.85;;;19.17;;
37997;SDS011;24079;51.824;4.682;2023-02-12T14:53:24;31.20;;;18.80;;
37997;SDS011;24079;51.824;4.682;2023-02-12T14:56:00;28.83;;;20.30;;
37997;SDS011;24079;51.824;4.682;2023-02-12T14:58:27;31.48;;;19.67;;
37997;SDS011;24079;51.824;4.682;2023-02-12T15:00:57;31.38;;;20.42;;
37997;SDS011;24079;51.824;4.682;2023-02-12T15:03:58;34.42;;;22.73;;
37997;SDS011;24079;51.824;4.682;2023-02-12T15:06:20;35.90;;;22.42;;
37997;SDS011;24079;51.824;4.682;2023-02-12T15:08:51;37.60;;;23.15;;
37997;SDS011;24079;51.824;4.682;2023-02-12T15:11:42;33.63;;;21.65;;
37997;SDS011;24079;51.824;4.682;2023-02-12T15:14:27;31.65;;;20.33;;
37997;SDS011;24079;51.824;4.682;2023-02-12T15:19:42;31.23;;;20.15;;
37997;SDS011;24079;51.824;4.682;2023-02-12T15:22:29;31.83;;;21.73;;
37997;SDS011;24079;51.824;4.682;2023-02-12T15:25:13;30.33;;;21.20;;
37997;SDS011;24079;51.824;4.682;2023-02-12T15:27:44;32.05;;;20.65;;
37997;SDS011;24079;51.824;4.682;2023-02-12T15:30:14;33.33;;;20.52;;
37997;SDS011;24079;51.824;4.682;2023-02-12T15:32:46;32.20;;;20.27;;
37997;SDS011;24079;51.824;4.682;2023-02-12T15:35:19;34.78;;;21.83;;
37997;SDS011;24079;51.824;4.682;2023-02-12T15:37:48;31.42;;;21.15;;
37997;SDS011;24079;51.824;4.682;2023-02-12T15:40:15;36.80;;;22.73;;
37997;SDS011;24079;51.824;4.682;2023-02-12T15:42:51;32.35;;;21.45;;
37997;SDS011;24079;51.824;4.682;2023-02-12T15:45:27;34.90;;;21.73;;
37997;SDS011;24079;51.824;4.682;2023-02-12T15:50:25;31.10;;;20.65;;
37997;SDS011;24079;51.824;4.682;2023-02-12T15:52:51;33.95;;;21.98;;
37997;SDS011;24079;51.824;4.682;2023-02-12T15:55:19;38.13;;;21.50;;
37997;SDS011;24079;51.824;4.682;2023-02-12T15:57:50;31.17;;;20.13;;
37997;SDS011;24079;51.824;4.682;2023-02-12T16:00:27;30.80;;;19.67;;
37997;SDS011;24079;51.824;4.682;2023-02-12T16:02:53;34.15;;;20.75;;
37997;SDS011;24079;51.824;4.682;2023-02-12T16:05:19;38.53;;;22.10;;
37997;SDS011;24079;51.824;4.682;2023-02-12T16:07:46;32.50;;;20.13;;
37997;SDS011;24079;51.824;4.682;2023-02-12T16:10:14;34.75;;;21.67;;
37997;SDS011;24079;51.824;4.682;2023-02-12T16:12:42;34.90;;;20.45;;
37997;SDS011;24079;51.824;4.682;2023-02-12T16:15:25;38.88;;;23.02;;
37997;SDS011;24079;51.824;4.682;2023-02-12T16:17:58;36.45;;;22.67;;
37997;SDS011;24079;51.824;4.682;2023-02-12T16:20:28;38.60;;;23.55;;
37997;SDS011;24079;51.824;4.682;2023-02-12T16:22:55;40.28;;;24.70;;
37997;SDS011;24079;51.824;4.682;2023-02-12T16:25:22;35.03;;;22.58;;
37997;SDS011;24079;51.824;4.682;2023-02-12T16:30:47;35.35;;;22.80;;
37997;SDS011;24079;51.824;4.682;2023-02-12T16:33:33;38.33;;;23.60;;
37997;SDS011;24079;51.824;4.682;2023-02-12T16:36:06;36.90;;;24.55;;
37997;SDS011;24079;51.824;4.682;2023-02-12T16:41:18;36.92;;;23.65;;
37997;SDS011;24079;51.824;4.682;2023-02-12T16:46:26;35.95;;;23.73;;
37997;SDS011;24079;51.824;4.682;2023-02-12T16:48:53;38.72;;;24.63;;
37997;SDS011;24079;51.824;4.682;2023-02-12T16:51:25;41.75;;;24.85;;
37997;SDS011;24079;51.824;4.682;2023-02-12T16:53:54;35.42;;;23.52;;
37997;SDS011;24079;51.824;4.682;2023-02-12T16:56:21;37.65;;;24.48;;
37997;SDS011;24079;51.824;4.682;2023-02-12T16:58:51;34.53;;;23.90;;
37997;SDS011;24079;51.824;4.682;2023-02-12T17:01:29;40.60;;;26.30;;
37997;SDS011;24079;51.824;4.682;2023-02-12T17:03:56;40.33;;;26.45;;
37997;SDS011;24079;51.824;4.682;2023-02-12T17:06:25;42.83;;;26.55;;
37997;SDS011;24079;51.824;4.682;2023-02-12T17:08:52;43.97;;;26.75;;
37997;SDS011;24079;51.824;4.682;2023-02-12T17:11:19;39.30;;;24.88;;
37997;SDS011;24079;51.824;4.682;2023-02-12T17:13:47;34.90;;;22.77;;
37997;SDS011;24079;51.824;4.682;2023-02-12T17:16:14;38.25;;;24.13;;
37997;SDS011;24079;51.824;4.682;2023-02-12T17:18:40;40.53;;;25.77;;
37997;SDS011;24079;51.824;4.682;2023-02-12T17:21:07;40.30;;;24.42;;
37997;SDS011;24079;51.824;4.682;2023-02-12T17:23:54;46.33;;;27.40;;
37997;SDS011;24079;51.824;4.682;2023-02-12T17:26:20;41.25;;;25.73;;
37997;SDS011;24079;51.824;4.682;2023-02-12T17:28:46;42.95;;;27.90;;
37997;SDS011;24079;51.824;4.682;2023-02-12T17:31:12;46.55;;;29.70;;
37997;SDS011;24079;51.824;4.682;2023-02-12T17:33:38;41.70;;;27.35;;
37997;SDS011;24079;51.824;4.682;2023-02-12T17:36:03;46.08;;;28.92;;
37997;SDS011;24079;51.824;4.682;2023-02-12T17:38:29;41.63;;;27.35;;
37997;SDS011;24079;51.824;4.682;2023-02-12T17:40:55;45.47;;;27.45;;